createdAt,value
2022-11-08T00:00:15.944Z,3.50
2022-11-08T00:03:17.562Z,3.10
2022-11-08T00:06:38.011Z,3.50
2022-11-08T00:10:00.345Z,3.30
2022-11-08T00:13:22.730Z,3.40
2022-11-08T00:16:24.540Z,3.30
2022-11-08T00:19:26.088Z,3.08
2022-11-08T00:22:31.290Z,3.15
2022-11-08T00:25:32.844Z,3.85
2022-11-08T00:28:34.354Z,2.75
2022-11-08T00:31:35.910Z,3.00
2022-11-08T00:34:37.453Z,2.72
2022-11-08T00:37:38.978Z,2.88
2022-11-08T00:40:40.535Z,3.00
2022-11-08T00:43:42.189Z,3.10
2022-11-08T00:46:43.826Z,3.22
2022-11-08T00:49:45.363Z,3.25
2022-11-08T00:52:46.884Z,2.65
2022-11-08T00:55:48.403Z,3.03
2022-11-08T00:58:50.056Z,2.60
2022-11-08T01:01:51.737Z,2.60
2022-11-08T01:04:53.364Z,2.92
2022-11-08T01:07:54.891Z,3.45
2022-11-08T01:10:56.759Z,2.35
2022-11-08T01:14:00.882Z,2.95
2022-11-08T01:17:02.415Z,2.67
2022-11-08T01:20:04.364Z,2.95
2022-11-08T01:23:06.364Z,2.65
2022-11-08T01:26:13.324Z,2.80
2022-11-08T01:29:14.846Z,2.55
2022-11-08T01:32:16.374Z,2.60
2022-11-08T01:35:17.886Z,2.63
2022-11-08T01:38:19.997Z,2.65
2022-11-08T01:41:24.086Z,2.58
2022-11-08T01:44:25.811Z,2.90
2022-11-08T01:47:27.369Z,2.40
2022-11-08T01:50:29.018Z,2.70
2022-11-08T01:53:30.568Z,2.45
2022-11-08T01:56:32.271Z,2.95
2022-11-08T01:59:37.741Z,2.35
2022-11-08T02:02:42.165Z,2.20
2022-11-08T02:05:44.715Z,2.50
2022-11-08T02:08:46.481Z,2.83
2022-11-08T02:11:49.210Z,2.45
2022-11-08T02:14:51.119Z,2.35
2022-11-08T02:17:54.103Z,2.40
2022-11-08T02:21:13.903Z,2.28
2022-11-08T02:24:16.643Z,2.22
2022-11-08T02:27:18.211Z,2.45
2022-11-08T02:30:19.883Z,2.53
2022-11-08T02:33:23.220Z,2.58
2022-11-08T02:36:25.047Z,2.65
2022-11-08T02:39:26.670Z,2.08
2022-11-08T02:42:28.242Z,2.45
2022-11-08T02:45:29.761Z,2.70
2022-11-08T02:48:31.334Z,2.45
2022-11-08T02:51:32.953Z,3.08
2022-11-08T02:54:34.562Z,2.40
2022-11-08T02:57:36.163Z,2.72
2022-11-08T03:00:38.830Z,2.40
2022-11-08T03:03:40.370Z,2.70
2022-11-08T03:06:41.906Z,2.60
2022-11-08T03:09:43.428Z,2.28
2022-11-08T03:12:45.017Z,3.10
2022-11-08T03:15:46.538Z,2.58
2022-11-08T03:18:48.102Z,2.60
2022-11-08T03:21:49.679Z,3.20
2022-11-08T03:24:51.399Z,2.78
2022-11-08T03:27:53.202Z,2.97
2022-11-08T03:30:54.703Z,2.60
2022-11-08T03:33:56.244Z,2.83
2022-11-08T03:36:57.830Z,3.30
2022-11-08T03:39:59.358Z,2.80
2022-11-08T03:43:00.957Z,3.00
2022-11-08T03:46:02.528Z,2.58
2022-11-08T03:49:04.361Z,2.58
2022-11-08T03:52:05.876Z,3.13
2022-11-08T03:55:12.878Z,2.80
2022-11-08T03:58:14.577Z,2.72
2022-11-08T04:01:16.641Z,2.47
2022-11-08T04:04:18.222Z,2.75
2022-11-08T04:07:19.793Z,2.50
2022-11-08T04:10:21.843Z,2.78
2022-11-08T04:13:42.152Z,2.35
2022-11-08T04:16:43.822Z,3.35
2022-11-08T04:20:04.012Z,2.50
2022-11-08T04:23:05.562Z,2.45
2022-11-08T04:26:08.326Z,2.40
2022-11-08T04:29:10.464Z,2.58
2022-11-08T04:32:11.989Z,2.35
2022-11-08T04:35:13.821Z,2.08
2022-11-08T04:38:16.666Z,2.63
2022-11-08T04:41:23.805Z,2.28
2022-11-08T04:44:25.362Z,2.10
2022-11-08T04:47:28.121Z,2.70
2022-11-08T04:50:29.688Z,2.90
2022-11-08T04:53:31.593Z,2.08
2022-11-08T04:56:33.402Z,2.50
2022-11-08T04:59:34.996Z,2.53
2022-11-08T05:02:36.647Z,2.25
2022-11-08T05:05:38.262Z,2.10
2022-11-08T05:08:40.666Z,2.03
2022-11-08T05:11:42.239Z,2.60
2022-11-08T05:14:43.763Z,2.00
2022-11-08T05:17:45.319Z,2.03
2022-11-08T05:21:11.719Z,2.65
2022-11-08T05:24:15.294Z,2.47
2022-11-08T05:27:16.813Z,2.58
2022-11-08T05:30:18.358Z,2.45
2022-11-08T05:33:19.921Z,2.45
2022-11-08T05:36:21.657Z,2.28
2022-11-08T05:39:23.167Z,2.75
2022-11-08T05:42:24.711Z,2.72
2022-11-08T05:45:26.501Z,2.92
2022-11-08T05:48:28.328Z,2.80
2022-11-08T05:51:31.173Z,3.00
2022-11-08T05:54:32.870Z,2.65
2022-11-08T05:57:34.648Z,2.65
2022-11-08T06:00:36.164Z,2.45
2022-11-08T06:03:38.551Z,2.58
2022-11-08T06:06:40.128Z,2.35
2022-11-08T06:09:41.802Z,2.75
2022-11-08T06:12:43.390Z,2.40
2022-11-08T06:15:44.954Z,2.30
2022-11-08T06:18:47.020Z,2.65
2022-11-08T06:21:48.618Z,2.53
2022-11-08T06:24:50.146Z,2.00
2022-11-08T06:27:52.202Z,1.95
2022-11-08T06:30:54.362Z,2.15
2022-11-08T06:33:55.998Z,1.95
2022-11-08T06:36:59.273Z,1.80
2022-11-08T06:40:00.791Z,1.80
2022-11-08T06:43:02.639Z,2.05
2022-11-08T06:46:04.293Z,2.00
2022-11-08T06:49:06.244Z,1.83
2022-11-08T06:52:08.207Z,1.80
2022-11-08T06:55:09.758Z,1.98
2022-11-08T06:58:11.651Z,1.90
2022-11-08T07:01:13.669Z,2.28
2022-11-08T07:04:15.246Z,1.75
2022-11-08T07:07:16.767Z,1.80
2022-11-08T07:10:20.258Z,1.95
2022-11-08T07:13:22.182Z,1.85
2022-11-08T07:16:23.947Z,1.80
2022-11-08T07:19:25.494Z,1.70
2022-11-08T07:22:27.057Z,1.73
2022-11-08T07:25:29.785Z,1.67
2022-11-08T07:28:31.642Z,2.13
2022-11-08T07:31:33.273Z,1.63
2022-11-08T07:34:36.128Z,2.00
2022-11-08T07:37:37.717Z,1.83
2022-11-08T07:40:39.243Z,1.70
2022-11-08T07:43:40.806Z,1.77
2022-11-08T07:46:42.379Z,1.80
2022-11-08T07:49:43.927Z,1.80
2022-11-08T07:52:49.790Z,1.65
2022-11-08T07:55:52.142Z,2.13
2022-11-08T07:58:53.751Z,2.08
2022-11-08T08:01:55.403Z,1.90
2022-11-08T08:04:56.997Z,2.30
2022-11-08T08:07:59.731Z,2.00
2022-11-08T08:11:02.431Z,1.98
2022-11-08T08:14:03.999Z,2.05
2022-11-08T08:17:05.535Z,1.90
2022-11-08T08:20:13.760Z,2.25
2022-11-08T08:23:15.533Z,1.88
2022-11-08T08:26:17.256Z,2.10
2022-11-08T08:29:18.801Z,2.05
2022-11-08T08:32:20.345Z,1.92
2022-11-08T08:35:21.877Z,1.63
2022-11-08T08:38:23.455Z,1.90
2022-11-08T08:41:25.000Z,1.98
2022-11-08T08:44:29.517Z,2.42
2022-11-08T08:47:31.070Z,2.28
2022-11-08T08:50:33.039Z,1.85
2022-11-08T08:53:34.657Z,1.83
2022-11-08T08:56:36.192Z,1.98
2022-11-08T09:03:08.770Z,1.92
2022-11-08T09:06:10.537Z,2.00
2022-11-08T09:09:12.064Z,1.80
2022-11-08T09:12:14.847Z,1.58
2022-11-08T09:15:17.094Z,1.80
2022-11-08T09:18:19.489Z,2.13
2022-11-08T09:21:21.145Z,2.28
2022-11-08T09:24:22.836Z,2.15
2022-11-08T09:27:24.418Z,1.90
2022-11-08T09:30:26.673Z,1.92
2022-11-08T09:33:28.446Z,1.75
2022-11-08T09:36:30.147Z,2.10
2022-11-08T09:39:31.779Z,1.70
2022-11-08T09:42:47.972Z,1.83
2022-11-08T09:45:52.480Z,1.98
2022-11-08T09:49:02.963Z,2.35
2022-11-08T09:52:05.812Z,1.73
2022-11-08T09:55:10.711Z,1.90
2022-11-08T09:58:21.414Z,1.90
2022-11-08T10:01:27.130Z,1.65
2022-11-08T10:04:31.947Z,1.95
2022-11-08T10:07:49.151Z,1.98
2022-11-08T10:11:07.863Z,2.40
2022-11-08T10:14:34.021Z,2.13
2022-11-08T10:17:53.734Z,1.85
2022-11-08T10:21:32.989Z,2.28
2022-11-08T10:24:54.787Z,2.05
2022-11-08T10:28:00.814Z,2.30
2022-11-08T10:31:03.294Z,2.30
2022-11-08T10:34:15.179Z,2.38
2022-11-08T10:37:17.798Z,1.98
2022-11-08T10:40:31.291Z,2.42
2022-11-08T10:43:42.188Z,2.20
2022-11-08T10:46:55.696Z,1.65
2022-11-08T10:50:02.488Z,1.95
2022-11-08T10:53:08.239Z,1.85
2022-11-08T10:56:09.903Z,2.00
2022-11-08T10:59:30.809Z,1.85
2022-11-08T11:02:35.027Z,2.00
2022-11-08T11:05:41.709Z,2.17
2022-11-08T11:08:54.269Z,1.98
2022-11-08T11:12:00.835Z,2.17
2022-11-08T11:15:03.917Z,2.05
2022-11-08T11:18:19.543Z,2.20
2022-11-08T11:21:23.681Z,1.95
2022-11-08T11:24:25.607Z,2.33
2022-11-08T11:27:34.678Z,2.28
2022-11-08T11:30:36.360Z,1.95
2022-11-08T11:33:45.624Z,2.10
2022-11-08T11:36:59.440Z,1.92
2022-11-08T11:40:20.987Z,2.30
2022-11-08T11:43:32.698Z,2.13
2022-11-08T11:47:02.669Z,2.10
2022-11-08T11:50:19.106Z,2.40
2022-11-08T11:53:24.635Z,3.95
2022-11-08T11:56:53.863Z,2.58
2022-11-08T12:00:10.319Z,2.15
2022-11-08T12:03:34.656Z,2.30
2022-11-08T12:06:44.113Z,2.38
2022-11-08T12:09:59.096Z,3.10
2022-11-08T12:13:20.983Z,1.83
2022-11-08T12:16:46.200Z,2.33
2022-11-08T12:20:05.124Z,1.92
2022-11-08T12:23:27.981Z,2.03
2022-11-08T12:26:50.051Z,2.05
2022-11-08T12:30:21.389Z,2.20
2022-11-08T12:33:41.439Z,2.40
2022-11-08T12:36:52.637Z,2.17
2022-11-08T12:40:01.200Z,2.60
2022-11-08T12:43:22.000Z,2.50
2022-11-08T12:46:24.449Z,2.00
2022-11-08T12:49:46.888Z,2.17
2022-11-08T12:52:56.345Z,2.40
2022-11-08T12:55:58.706Z,2.40
2022-11-08T12:59:01.026Z,2.08
2022-11-08T13:02:04.780Z,2.17
2022-11-08T13:05:13.066Z,2.55
2022-11-08T13:08:31.614Z,2.40
2022-11-08T13:12:16.221Z,2.47
2022-11-08T13:15:21.718Z,2.58
2022-11-08T13:18:32.233Z,2.75
2022-11-08T13:24:45.378Z,2.75
2022-11-08T13:27:48.418Z,2.63
2022-11-08T13:31:00.202Z,2.50
2022-11-08T13:34:40.509Z,2.30
2022-11-08T13:37:50.969Z,2.50
2022-11-08T13:41:22.137Z,2.90
2022-11-08T13:44:54.950Z,2.60
2022-11-08T13:47:58.818Z,2.55
2022-11-08T13:51:28.534Z,2.42
2022-11-08T13:54:51.819Z,3.13
2022-11-08T13:58:02.511Z,2.53
2022-11-08T14:01:09.382Z,2.75
2022-11-08T14:04:27.515Z,2.90
2022-11-08T14:07:33.088Z,2.30
2022-11-08T14:10:57.619Z,2.50
2022-11-08T14:14:20.451Z,2.92
2022-11-08T14:17:47.519Z,3.67
2022-11-08T14:20:50.014Z,2.55
2022-11-08T14:23:51.603Z,2.47
2022-11-08T14:26:53.518Z,2.63
2022-11-08T14:30:01.758Z,2.30
2022-11-08T14:33:17.416Z,2.55
2022-11-08T14:36:21.674Z,2.60
2022-11-08T14:39:28.660Z,2.88
2022-11-08T14:42:30.336Z,2.83
2022-11-08T14:45:31.931Z,2.83
2022-11-08T14:48:33.702Z,2.60
2022-11-08T14:51:35.483Z,2.65
2022-11-08T14:54:40.659Z,2.65
2022-11-08T14:57:44.229Z,2.67
2022-11-08T15:00:47.569Z,2.80
2022-11-08T15:03:59.306Z,2.60
2022-11-08T15:07:01.065Z,2.88
2022-11-08T15:10:08.487Z,2.88
2022-11-08T15:13:11.106Z,2.85
2022-11-08T15:16:13.092Z,3.10
2022-11-08T15:19:46.989Z,2.85
2022-11-08T15:22:52.875Z,2.60
2022-11-08T15:26:00.640Z,2.85
2022-11-08T15:29:14.109Z,2.97
2022-11-08T15:32:20.745Z,3.30
2022-11-08T15:35:34.820Z,2.72
2022-11-08T15:38:39.243Z,2.60
2022-11-08T15:41:41.361Z,2.60
2022-11-08T15:45:25.129Z,2.63
2022-11-08T15:48:27.678Z,2.63
2022-11-08T15:51:29.297Z,2.35
2022-11-08T15:54:30.850Z,2.58
2022-11-08T15:57:32.652Z,2.95
2022-11-08T16:00:38.099Z,2.65
2022-11-08T16:03:39.626Z,2.63
2022-11-08T16:06:41.225Z,2.53
2022-11-08T16:09:42.793Z,2.75
2022-11-08T16:12:47.214Z,2.70
2022-11-08T16:15:51.342Z,2.78
2022-11-08T16:18:52.998Z,3.00
2022-11-08T16:21:54.554Z,3.63
2022-11-08T16:24:56.077Z,3.40
2022-11-08T16:28:04.779Z,3.50
2022-11-08T16:31:16.097Z,3.55
2022-11-08T16:34:18.382Z,3.25
2022-11-08T16:37:20.456Z,3.38
2022-11-08T16:40:24.535Z,3.65
2022-11-08T16:43:26.466Z,3.45
2022-11-08T16:46:28.943Z,3.40
2022-11-08T16:49:32.282Z,3.10
2022-11-08T16:52:33.899Z,3.40
2022-11-08T16:55:35.506Z,3.30
2022-11-08T16:58:37.225Z,3.17
2022-11-08T17:01:39.979Z,3.38
2022-11-08T17:04:41.586Z,3.65
2022-11-08T17:07:43.226Z,3.25
2022-11-08T17:10:44.810Z,3.45
2022-11-08T17:13:47.091Z,2.63
2022-11-08T17:16:52.417Z,2.70
2022-11-08T17:19:55.174Z,2.90
2022-11-08T17:22:56.731Z,2.85
2022-11-08T17:26:02.928Z,2.70
2022-11-08T17:29:06.435Z,4.53
2022-11-08T17:32:09.143Z,4.97
2022-11-08T17:35:12.053Z,3.15
2022-11-08T17:38:13.653Z,2.70
2022-11-08T17:41:15.475Z,3.17
2022-11-08T17:44:17.188Z,2.80
2022-11-08T17:47:18.740Z,2.70
2022-11-08T17:50:20.327Z,2.55
2022-11-08T17:53:22.792Z,3.05
2022-11-08T17:56:24.342Z,2.85
2022-11-08T17:59:25.971Z,3.08
2022-11-08T18:02:27.999Z,2.80
2022-11-08T18:05:29.652Z,2.92
2022-11-08T18:08:32.803Z,4.32
2022-11-08T18:11:34.878Z,2.50
2022-11-08T18:14:36.557Z,4.10
2022-11-08T18:17:38.100Z,3.53
2022-11-08T18:20:39.793Z,3.83
2022-11-08T18:23:43.623Z,3.25
2022-11-08T18:26:45.240Z,2.53
2022-11-08T18:29:46.824Z,2.70
2022-11-08T18:32:48.379Z,2.58
2022-11-08T18:35:49.951Z,2.72
2022-11-08T18:38:59.722Z,2.60
2022-11-08T18:42:01.256Z,2.40
2022-11-08T18:45:03.339Z,2.50
2022-11-08T18:48:05.390Z,2.75
2022-11-08T18:51:10.682Z,2.78
2022-11-08T18:54:12.261Z,2.50
2022-11-08T18:57:13.851Z,2.80
2022-11-08T19:00:18.392Z,3.03
2022-11-08T19:03:20.637Z,2.60
2022-11-08T19:06:22.455Z,2.33
2022-11-08T19:09:24.018Z,2.40
2022-11-08T19:12:28.536Z,2.70
2022-11-08T19:15:32.727Z,2.80
2022-11-08T19:18:35.079Z,2.50
2022-11-08T19:21:38.349Z,2.70
2022-11-08T19:24:39.959Z,2.83
2022-11-08T19:27:41.557Z,2.55
2022-11-08T19:30:49.887Z,2.55
2022-11-08T19:33:53.529Z,2.58
2022-11-08T19:36:56.265Z,2.55
2022-11-08T19:39:58.119Z,2.50
2022-11-08T19:42:59.717Z,2.65
2022-11-08T19:46:03.437Z,2.80
2022-11-08T19:49:05.518Z,2.63
2022-11-08T19:52:07.195Z,2.50
2022-11-08T19:55:08.885Z,2.63
2022-11-08T19:58:10.950Z,2.40
2022-11-08T20:01:20.484Z,2.60
2022-11-08T20:04:23.195Z,2.50
2022-11-08T20:07:45.922Z,2.90
2022-11-08T20:10:47.775Z,2.58
2022-11-08T20:13:49.973Z,2.08
2022-11-08T20:16:54.047Z,2.10
2022-11-08T20:19:56.039Z,2.45
2022-11-08T20:22:57.836Z,2.45
2022-11-08T20:26:00.851Z,2.25
2022-11-08T20:29:02.400Z,2.78
2022-11-08T20:32:04.431Z,4.65
2022-11-08T20:35:06.556Z,2.42
2022-11-08T20:38:08.147Z,2.85
2022-11-08T20:41:14.512Z,2.30
2022-11-08T20:44:16.401Z,2.17
2022-11-08T20:47:19.113Z,2.20
2022-11-08T20:50:20.739Z,2.28
2022-11-08T20:53:22.295Z,2.47
2022-11-08T20:56:26.370Z,2.80
2022-11-08T20:59:28.088Z,2.47
2022-11-08T21:02:33.899Z,2.80
2022-11-08T21:05:35.522Z,2.42
2022-11-08T21:12:02.048Z,2.75
2022-11-08T21:15:03.927Z,2.50
2022-11-08T21:18:06.806Z,2.58
2022-11-08T21:21:09.711Z,2.42
2022-11-08T21:24:11.675Z,2.20
2022-11-08T21:27:13.984Z,2.70
2022-11-08T21:30:15.515Z,2.70
2022-11-08T21:33:17.206Z,2.83
2022-11-08T21:36:20.376Z,2.50
2022-11-08T21:39:22.052Z,2.75
2022-11-08T21:42:23.639Z,2.55
2022-11-08T21:45:25.558Z,2.50
2022-11-08T21:48:27.098Z,2.55
2022-11-08T21:51:29.745Z,2.05
2022-11-08T21:54:31.319Z,2.40
2022-11-08T21:57:35.935Z,2.95
2022-11-08T22:00:37.510Z,2.42
2022-11-08T22:03:39.155Z,2.63
2022-11-08T22:06:45.020Z,2.58
2022-11-08T22:09:54.203Z,2.80
2022-11-08T22:12:55.792Z,2.40
2022-11-08T22:15:57.457Z,2.40
2022-11-08T22:19:06.151Z,2.92
2022-11-08T22:22:08.102Z,2.90
2022-11-08T22:25:12.163Z,2.78
2022-11-08T22:28:13.679Z,2.38
2022-11-08T22:31:15.310Z,2.63
2022-11-08T22:34:16.861Z,2.45
2022-11-08T22:37:18.417Z,2.75
2022-11-08T22:40:22.203Z,2.80
2022-11-08T22:43:23.734Z,2.05
2022-11-08T22:46:26.712Z,2.25
2022-11-08T22:49:29.022Z,2.35
2022-11-08T22:52:30.624Z,2.33
2022-11-08T22:55:32.288Z,2.10
2022-11-08T22:58:34.051Z,2.30
2022-11-08T23:01:35.882Z,1.83
2022-11-08T23:04:37.437Z,2.63
2022-11-08T23:07:39.014Z,2.25
2022-11-08T23:10:59.103Z,2.00
2022-11-08T23:14:19.669Z,2.20
2022-11-08T23:17:21.209Z,2.20
2022-11-08T23:20:41.414Z,2.13
2022-11-08T23:24:01.931Z,2.10
2022-11-08T23:27:23.079Z,2.13
2022-11-08T23:30:43.544Z,2.00
2022-11-08T23:33:45.110Z,2.00
2022-11-08T23:36:46.654Z,2.22
2022-11-08T23:40:07.204Z,2.20
2022-11-08T23:43:35.848Z,2.00
2022-11-08T23:46:37.552Z,2.00
2022-11-08T23:49:39.057Z,1.98
2022-11-08T23:52:40.648Z,1.85
2022-11-08T23:55:42.369Z,2.10
2022-11-08T23:58:43.944Z,2.10
